createdAt,value
2022-09-03T00:02:41.123Z,101190.81
2022-09-03T00:05:19.226Z,101194.38
2022-09-03T00:07:59.725Z,101188.22
2022-09-03T00:10:40.750Z,101185.56
2022-09-03T00:13:12.405Z,101182.06
2022-09-03T00:15:43.501Z,101182.09
2022-09-03T00:18:20.457Z,101181.22
2022-09-03T00:20:57.725Z,101175.06
2022-09-03T00:23:37.269Z,101176.84
2022-09-03T00:26:23.051Z,101164.50
2022-09-03T00:29:00.661Z,101175.13
2022-09-03T00:31:37.607Z,101157.41
2022-09-03T00:34:17.670Z,101167.16
2022-09-03T00:36:48.890Z,101160.09
2022-09-03T00:39:23.502Z,101163.63
2022-09-03T00:42:09.780Z,101174.22
2022-09-03T00:44:57.166Z,101175.09
2022-09-03T00:47:41.066Z,101172.47
2022-09-03T00:50:16.961Z,101183.94
2022-09-03T00:52:57.364Z,101178.59
2022-09-03T00:55:42.122Z,101174.16
2022-09-03T00:58:32.196Z,101175.84
2022-09-03T01:01:04.063Z,101167.03
2022-09-03T01:03:44.266Z,101174.94
2022-09-03T01:06:22.337Z,101180.25
2022-09-03T01:09:12.419Z,101178.47
2022-09-03T01:11:55.548Z,101178.44
2022-09-03T01:14:41.029Z,101180.25
2022-09-03T01:17:19.407Z,101180.22
2022-09-03T01:20:06.155Z,101185.56
2022-09-03T01:23:12.754Z,101183.75
2022-09-03T01:25:55.957Z,101182.00
2022-09-03T01:28:40.738Z,101188.25
2022-09-03T01:31:21.931Z,101196.19
2022-09-03T01:34:01.531Z,101184.69
2022-09-03T01:36:39.887Z,101185.59
2022-09-03T01:39:17.946Z,101187.38
2022-09-03T01:42:12.352Z,101185.63
2022-09-03T01:45:08.795Z,101187.41
2022-09-03T01:47:51.657Z,101185.66
2022-09-03T01:50:38.415Z,101184.75
2022-09-03T01:53:23.282Z,101179.44
2022-09-03T01:56:13.590Z,101183.91
2022-09-03T01:58:47.118Z,101177.75
2022-09-03T02:01:22.057Z,101180.34
2022-09-03T02:03:58.811Z,101173.28
2022-09-03T02:06:33.137Z,101182.16
2022-09-03T02:09:07.284Z,101173.31
2022-09-03T02:11:41.428Z,101168.06
2022-09-03T02:14:11.565Z,101171.63
2022-09-03T02:16:44.773Z,101169.00
2022-09-03T02:19:17.525Z,101171.72
2022-09-03T02:21:51.190Z,101166.41
2022-09-03T02:24:21.137Z,101166.44
2022-09-03T02:26:50.985Z,101168.19
2022-09-03T02:29:21.341Z,101165.56
2022-09-03T02:31:54.375Z,101162.97
2022-09-03T02:34:24.795Z,101159.47
2022-09-03T02:36:54.640Z,101156.84
2022-09-03T02:39:24.490Z,101162.19
2022-09-03T02:41:58.796Z,101168.41
2022-09-03T02:44:37.720Z,101165.78
2022-09-03T02:47:13.847Z,101168.47
2022-09-03T02:49:43.890Z,101171.13
2022-09-03T02:52:14.006Z,101161.47
2022-09-03T02:54:45.327Z,101161.47
2022-09-03T02:57:23.085Z,101161.50
2022-09-03T02:59:57.565Z,101160.66
2022-09-03T03:02:31.204Z,101153.63
2022-09-03T03:05:01.098Z,101151.00
2022-09-03T03:07:39.892Z,101152.78
2022-09-03T03:10:14.059Z,101154.53
2022-09-03T03:12:43.943Z,101166.91
2022-09-03T03:15:13.827Z,101161.66
2022-09-03T03:17:46.136Z,101165.19
2022-09-03T03:20:15.878Z,101153.75
2022-09-03T03:22:45.750Z,101157.28
2022-09-03T03:25:15.476Z,101155.53
2022-09-03T03:27:47.235Z,101154.66
2022-09-03T03:30:17.342Z,101152.91
2022-09-03T03:32:49.701Z,101161.72
2022-09-03T03:35:19.565Z,101157.31
2022-09-03T03:37:49.536Z,101151.19
2022-09-03T03:40:20.343Z,101159.16
2022-09-03T03:42:50.386Z,101153.84
2022-09-03T03:45:20.868Z,101153.84
2022-09-03T03:47:53.530Z,101159.13
2022-09-03T03:50:23.855Z,101157.34
2022-09-03T03:52:53.646Z,101162.66
2022-09-03T03:55:23.581Z,101159.09
2022-09-03T03:57:57.118Z,101164.41
2022-09-03T04:00:27.174Z,101168.81
2022-09-03T04:03:02.767Z,101170.59
2022-09-03T04:05:33.770Z,101170.59
2022-09-03T04:08:08.497Z,101168.81
2022-09-03T04:10:41.289Z,101163.53
2022-09-03T04:13:11.601Z,101170.59
2022-09-03T04:15:42.356Z,101161.78
2022-09-03T04:18:15.225Z,101165.31
2022-09-03T04:20:45.859Z,101165.31
2022-09-03T04:23:15.778Z,101158.25
2022-09-03T04:25:45.503Z,101160.91
2022-09-03T04:28:15.901Z,101158.25
2022-09-03T04:30:49.173Z,101151.22
2022-09-03T04:33:22.598Z,101157.38
2022-09-03T04:35:52.530Z,101157.41
2022-09-03T04:38:23.353Z,101154.75
2022-09-03T04:40:55.138Z,101153.00
2022-09-03T04:43:25.023Z,101150.34
2022-09-03T04:45:55.166Z,101152.13
2022-09-03T04:48:28.144Z,101154.75
2022-09-03T04:51:01.013Z,101152.13
2022-09-03T04:53:31.686Z,101153.00
2022-09-03T04:56:01.572Z,101155.66
2022-09-03T04:58:31.738Z,101157.41
2022-09-03T05:01:02.559Z,101151.25
2022-09-03T05:03:37.677Z,101157.41
2022-09-03T05:06:09.858Z,101151.25
2022-09-03T05:08:43.883Z,101153.00
2022-09-03T05:11:13.849Z,101156.53
2022-09-03T05:13:43.989Z,101153.88
2022-09-03T05:16:15.063Z,101150.38
2022-09-03T05:18:48.158Z,101158.28
2022-09-03T05:21:20.250Z,101151.25
2022-09-03T05:23:52.147Z,101159.16
2022-09-03T05:26:23.313Z,101158.28
2022-09-03T05:28:57.655Z,101158.28
2022-09-03T05:31:30.368Z,101163.56
2022-09-03T05:34:06.773Z,101150.38
2022-09-03T05:36:41.293Z,101155.66
2022-09-03T05:39:11.071Z,101160.94
2022-09-03T05:41:40.819Z,101157.41
2022-09-03T05:44:10.673Z,101162.69
2022-09-03T05:46:40.539Z,101154.75
2022-09-03T05:49:13.045Z,101162.66
2022-09-03T05:51:42.839Z,101156.50
2022-09-03T05:54:13.470Z,101164.44
2022-09-03T05:56:43.916Z,101167.03
2022-09-03T05:59:15.449Z,101159.94
2022-09-03T06:01:50.269Z,101159.94
2022-09-03T06:04:24.698Z,101161.69
2022-09-03T06:06:54.694Z,101169.59
2022-09-03T06:09:25.044Z,101172.19
2022-09-03T06:11:57.243Z,101173.91
2022-09-03T06:14:28.675Z,101168.56
2022-09-03T06:17:01.389Z,101172.06
2022-09-03T06:19:37.118Z,101167.59
2022-09-03T06:22:11.084Z,101170.13
2022-09-03T06:24:40.784Z,101173.69
2022-09-03T06:27:10.581Z,101173.66
2022-09-03T06:29:40.531Z,101177.09
2022-09-03T06:32:10.568Z,101169.09
2022-09-03T06:34:43.023Z,101175.22
2022-09-03T06:37:12.818Z,101176.03
2022-09-03T06:39:42.716Z,101170.56
2022-09-03T06:42:12.627Z,101176.63
2022-09-03T06:44:42.556Z,101180.13
2022-09-03T06:47:12.319Z,101180.91
2022-09-03T06:49:44.953Z,101178.94
2022-09-03T06:52:15.585Z,101178.81
2022-09-03T06:54:45.675Z,101185.63
2022-09-03T06:57:16.146Z,101179.22
2022-09-03T06:59:45.995Z,101180.94
2022-09-03T07:02:16.070Z,101184.31
2022-09-03T07:04:50.171Z,101185.88
2022-09-03T07:07:20.329Z,101187.50
2022-09-03T07:09:50.168Z,101187.31
2022-09-03T07:12:20.028Z,101190.69
2022-09-03T07:14:51.217Z,101190.38
2022-09-03T07:17:21.109Z,101188.59
2022-09-03T07:19:53.612Z,101183.16
2022-09-03T07:22:23.331Z,101194.34
2022-09-03T07:25:02.648Z,101180.63
2022-09-03T07:27:32.716Z,101196.94
2022-09-03T07:30:09.791Z,101185.13
2022-09-03T07:32:42.726Z,101188.09
2022-09-03T07:35:15.915Z,101187.72
2022-09-03T07:37:46.114Z,101182.34
2022-09-03T07:40:20.207Z,101181.19
2022-09-03T07:42:55.069Z,101179.09
2022-09-03T07:45:24.937Z,101180.97
2022-09-03T07:47:56.856Z,101180.72
2022-09-03T07:50:30.762Z,101180.28
2022-09-03T07:53:01.480Z,101192.44
2022-09-03T07:55:31.681Z,101180.69
2022-09-03T07:58:02.501Z,101193.28
2022-09-03T08:00:37.539Z,101191.34
2022-09-03T08:03:10.868Z,101196.69
2022-09-03T08:05:43.158Z,101197.06
2022-09-03T08:08:25.454Z,101193.78
2022-09-03T08:11:14.818Z,101194.84
2022-09-03T08:13:45.843Z,101204.06
2022-09-03T08:16:18.468Z,101211.03
2022-09-03T08:18:51.545Z,101214.13
2022-09-03T08:21:23.804Z,101214.28
2022-09-03T08:23:55.951Z,101217.16
2022-09-03T08:26:25.781Z,101220.69
2022-09-03T08:28:55.889Z,101218.91
2022-09-03T08:31:28.262Z,101221.88
2022-09-03T08:34:00.643Z,101214.25
2022-09-03T08:36:38.557Z,101213.09
2022-09-03T08:39:12.286Z,101212.22
2022-09-03T08:42:01.178Z,101206.94
2022-09-03T08:44:47.286Z,101220.72
2022-09-03T08:47:21.727Z,101213.75
2022-09-03T08:49:55.817Z,101209.91
2022-09-03T08:52:42.557Z,101205.31
2022-09-03T08:55:24.802Z,101212.25
2022-09-03T08:58:01.205Z,101205.19
2022-09-03T09:00:48.725Z,101213.47
2022-09-03T09:03:37.082Z,101211.88
2022-09-03T09:06:14.787Z,101214.09
2022-09-03T09:08:56.581Z,101213.53
2022-09-03T09:11:38.090Z,101215.47
2022-09-03T09:14:17.149Z,101218.91
2022-09-03T09:16:54.679Z,101220.00
2022-09-03T09:19:40.421Z,101218.88
2022-09-03T09:22:14.184Z,101222.59
2022-09-03T09:24:50.155Z,101225.59
2022-09-03T09:27:20.418Z,101224.03
2022-09-03T09:29:52.853Z,101233.03
2022-09-03T09:32:23.893Z,101226.25
2022-09-03T09:34:54.574Z,101219.22
2022-09-03T09:37:24.766Z,101223.81
2022-09-03T09:40:06.354Z,101232.19
2022-09-03T09:42:36.901Z,101223.16
2022-09-03T09:45:13.077Z,101228.41
2022-09-03T09:47:43.234Z,101217.91
2022-09-03T09:50:24.773Z,101217.41
2022-09-03T09:53:06.897Z,101217.03
2022-09-03T09:55:52.492Z,101215.41
2022-09-03T09:58:24.296Z,101200.03
2022-09-03T10:01:06.242Z,101204.84
2022-09-03T10:03:40.528Z,101209.91
2022-09-03T10:06:24.865Z,101206.50
2022-09-03T10:08:55.531Z,101205.25
2022-09-03T10:11:28.323Z,101207.75
2022-09-03T10:13:59.093Z,101207.75
2022-09-03T10:16:32.251Z,101204.97
2022-09-03T10:19:06.473Z,101205.84
2022-09-03T10:21:45.585Z,101205.56
2022-09-03T10:24:41.703Z,101206.81
2022-09-03T10:27:18.040Z,101208.66
2022-09-03T10:29:49.025Z,101207.16
2022-09-03T10:32:39.978Z,101199.97
2022-09-03T10:35:21.375Z,101198.19
2022-09-03T10:38:00.621Z,101213.00
2022-09-03T10:40:41.104Z,101200.84
2022-09-03T10:43:32.782Z,101207.63
2022-09-03T10:46:06.924Z,101199.84
2022-09-03T10:48:59.984Z,101195.72
2022-09-03T10:51:40.906Z,101207.50
2022-09-03T10:54:28.089Z,101202.41
2022-09-03T10:57:06.366Z,101203.63
2022-09-03T10:59:54.119Z,101200.06
2022-09-03T11:02:38.314Z,101199.72
2022-09-03T11:05:17.862Z,101197.44
2022-09-03T11:07:51.982Z,101191.72
2022-09-03T11:10:30.846Z,101200.78
2022-09-03T11:13:13.266Z,101200.78
2022-09-03T11:15:51.908Z,101212.97
2022-09-03T11:18:25.629Z,101208.78
2022-09-03T11:21:12.092Z,101206.69
2022-09-03T11:23:46.404Z,101195.47
2022-09-03T11:26:21.880Z,101208.56
2022-09-03T11:29:02.417Z,101207.72
2022-09-03T11:31:48.956Z,101201.50
2022-09-03T11:34:32.150Z,101201.44
2022-09-03T11:37:16.284Z,101208.13
2022-09-03T11:39:46.224Z,101198.56
2022-09-03T11:42:29.555Z,101200.59
2022-09-03T11:45:16.596Z,101194.00
2022-09-03T11:47:51.810Z,101196.41
2022-09-03T11:50:25.455Z,101185.44
2022-09-03T11:52:58.730Z,101182.66
2022-09-03T11:55:43.258Z,101184.41
2022-09-03T11:58:24.380Z,101184.47
2022-09-03T12:00:55.255Z,101177.28
2022-09-03T12:03:39.221Z,101179.59
2022-09-03T12:06:36.702Z,101186.63
2022-09-03T12:09:24.724Z,101179.25
2022-09-03T12:12:08.435Z,101177.50
2022-09-03T12:14:52.410Z,101182.81
2022-09-03T12:17:36.113Z,101178.91
2022-09-03T12:20:15.822Z,101183.13
2022-09-03T12:22:46.133Z,101183.34
2022-09-03T12:25:19.137Z,101185.19
2022-09-03T12:27:50.488Z,101181.06
2022-09-03T12:30:24.818Z,101175.28
2022-09-03T12:33:07.705Z,101170.81
2022-09-03T12:39:07.716Z,101172.81
2022-09-03T12:41:31.221Z,101168.63
2022-09-03T12:44:05.952Z,101168.47
2022-09-03T12:46:40.241Z,101173.00
2022-09-03T12:52:11.150Z,101173.25
2022-09-03T12:54:50.440Z,101160.97
2022-09-03T12:57:27.441Z,101161.84
2022-09-03T13:00:01.370Z,101161.63
2022-09-03T13:02:38.844Z,101165.50
2022-09-03T13:05:17.664Z,101168.91
2022-09-03T13:07:54.771Z,101169.16
2022-09-03T13:10:36.134Z,101162.47
2022-09-03T13:13:12.191Z,101168.22
2022-09-03T13:15:42.111Z,101164.81
2022-09-03T13:18:22.896Z,101159.84
2022-09-03T13:21:07.085Z,101168.06
2022-09-03T13:24:00.210Z,101159.78
2022-09-03T13:26:41.995Z,101160.47
2022-09-03T13:29:36.823Z,101163.47
2022-09-03T13:32:18.595Z,101165.44
2022-09-03T13:34:55.147Z,101159.94
2022-09-03T13:37:31.787Z,101165.25
2022-09-03T13:40:16.396Z,101157.19
2022-09-03T13:42:53.418Z,101157.25
2022-09-03T13:45:37.597Z,101151.56
2022-09-03T13:48:29.145Z,101148.34
2022-09-03T13:51:06.737Z,101155.41
2022-09-03T13:53:47.977Z,101155.41
2022-09-03T13:56:28.195Z,101155.59
2022-09-03T13:59:08.840Z,101150.19
2022-09-03T14:02:10.591Z,101147.38
2022-09-03T14:04:50.484Z,101158.13
2022-09-03T14:07:28.863Z,101160.94
2022-09-03T14:10:06.665Z,101153.47
2022-09-03T14:12:50.151Z,101150.63
2022-09-03T14:15:26.176Z,101161.97
2022-09-03T14:18:06.149Z,101166.13
2022-09-03T14:20:44.173Z,101160.44
2022-09-03T14:23:29.101Z,101156.66
2022-09-03T14:26:00.258Z,101160.09
2022-09-03T14:28:41.094Z,101160.09
2022-09-03T14:31:18.634Z,101156.00
2022-09-03T14:34:01.030Z,101159.72
2022-09-03T14:36:40.564Z,101156.03
2022-09-03T14:39:40.649Z,101158.41
2022-09-03T14:42:44.827Z,101154.59
2022-09-03T14:45:31.364Z,101156.50
2022-09-03T14:48:23.836Z,101165.59
2022-09-03T14:51:16.415Z,101152.41
2022-09-03T14:54:09.447Z,101153.13
2022-09-03T14:56:52.163Z,101151.81
2022-09-03T14:59:41.361Z,101149.25
2022-09-03T15:02:51.290Z,101154.56
2022-09-03T15:05:44.791Z,101154.91
2022-09-03T15:08:18.755Z,101154.53
2022-09-03T15:10:56.372Z,101155.16
2022-09-03T15:13:35.401Z,101150.31
2022-09-03T15:16:24.328Z,101152.19
2022-09-03T15:19:14.916Z,101155.91
2022-09-03T15:22:11.598Z,101156.38
2022-09-03T15:24:50.898Z,101153.78
2022-09-03T15:27:41.040Z,101160.75
2022-09-03T15:30:13.401Z,101159.97
2022-09-03T15:32:53.236Z,101162.91
2022-09-03T15:35:44.971Z,101163.84
2022-09-03T15:38:29.246Z,101160.03
2022-09-03T15:41:01.760Z,101162.69
2022-09-03T15:43:39.307Z,101159.00
2022-09-03T15:46:14.938Z,101157.69
2022-09-03T15:48:53.544Z,101153.94
2022-09-03T15:51:28.667Z,101151.16
2022-09-03T15:54:04.520Z,101154.78
2022-09-03T15:56:44.044Z,101161.78
2022-09-03T15:59:20.885Z,101153.84
2022-09-03T16:01:57.649Z,101157.19
2022-09-03T16:04:53.580Z,101157.34
2022-09-03T16:07:29.343Z,101153.06
2022-09-03T16:10:30.297Z,101162.94
2022-09-03T16:13:11.055Z,101161.28
2022-09-03T16:15:50.908Z,101161.44
2022-09-03T16:18:30.279Z,101165.47
2022-09-03T16:21:06.837Z,101166.41
2022-09-03T16:23:49.374Z,101159.44
2022-09-03T16:26:25.835Z,101155.53
2022-09-03T16:28:58.974Z,101164.66
2022-09-03T16:31:41.035Z,101164.41
2022-09-03T16:34:19.080Z,101169.53
2022-09-03T16:37:05.015Z,101162.06
2022-09-03T16:39:49.128Z,101159.91
2022-09-03T16:42:30.866Z,101161.00
2022-09-03T16:45:16.302Z,101161.22
2022-09-03T16:48:01.999Z,101164.72
2022-09-03T16:50:46.052Z,101158.03
2022-09-03T16:53:28.701Z,101159.88
2022-09-03T16:56:15.048Z,101163.06
2022-09-03T16:59:02.005Z,101166.47
2022-09-03T17:01:46.245Z,101171.31
2022-09-03T17:04:45.805Z,101168.59
2022-09-03T17:07:29.678Z,101168.81
2022-09-03T17:10:10.896Z,101169.09
2022-09-03T17:12:46.982Z,101173.72
2022-09-03T17:15:36.306Z,101178.22
2022-09-03T17:18:39.565Z,101180.56
2022-09-03T17:21:24.299Z,101187.78
2022-09-03T17:24:28.386Z,101189.81
2022-09-03T17:27:15.919Z,101192.88
2022-09-03T17:30:15.961Z,101198.25
2022-09-03T17:33:37.819Z,101204.91
2022-09-03T17:36:21.970Z,101206.41
2022-09-03T17:39:48.724Z,101201.09
2022-09-03T17:42:22.046Z,101208.16
2022-09-03T17:45:03.370Z,101212.34
2022-09-03T17:47:53.755Z,101211.59
2022-09-03T17:50:29.980Z,101212.28
2022-09-03T17:53:13.171Z,101214.88
2022-09-03T17:55:47.949Z,101214.44
2022-09-03T17:58:24.067Z,101217.34
2022-09-03T18:01:00.245Z,101221.19
2022-09-03T18:03:40.153Z,101218.81
2022-09-03T18:06:14.697Z,101226.25
2022-09-03T18:08:54.296Z,101225.59
2022-09-03T18:11:34.141Z,101225.06
2022-09-03T18:14:15.797Z,101230.91
2022-09-03T18:16:52.126Z,101233.09
2022-09-03T18:19:31.984Z,101242.44
2022-09-03T18:22:19.685Z,101248.97
2022-09-03T18:25:11.579Z,101248.41
2022-09-03T18:27:57.607Z,101253.28
2022-09-03T18:30:40.384Z,101251.88
2022-09-03T18:33:22.530Z,101259.19
2022-09-03T18:36:05.121Z,101271.06
2022-09-03T18:38:49.521Z,101265.91
2022-09-03T18:42:03.305Z,101274.00
2022-09-03T18:45:18.707Z,101279.53
2022-09-03T18:48:19.689Z,101286.88
2022-09-03T18:51:12.647Z,101277.19
2022-09-03T18:54:06.014Z,101285.34
2022-09-03T18:57:03.433Z,101287.25
2022-09-03T19:00:04.834Z,101278.72
2022-09-03T19:03:00.300Z,101288.53
2022-09-03T19:05:50.580Z,101292.22
2022-09-03T19:08:40.418Z,101289.69
2022-09-03T19:11:31.843Z,101303.16
2022-09-03T19:14:27.987Z,101304.22
2022-09-03T19:17:20.221Z,101303.50
2022-09-03T19:20:15.905Z,101309.78
2022-09-03T19:22:58.792Z,101317.91
2022-09-03T19:25:42.663Z,101312.56
2022-09-03T19:28:32.096Z,101312.66
2022-09-03T19:31:30.531Z,101308.38
2022-09-03T19:34:24.708Z,101312.00
2022-09-03T19:37:15.993Z,101308.53
2022-09-03T19:40:09.658Z,101309.50
2022-09-03T19:43:06.478Z,101319.44
2022-09-03T19:46:06.183Z,101316.00
2022-09-03T19:49:08.587Z,101313.47
2022-09-03T19:51:57.003Z,101323.34
2022-09-03T19:54:44.847Z,101315.50
2022-09-03T19:57:30.165Z,101320.97
2022-09-03T20:00:13.971Z,101319.38
2022-09-03T20:03:03.224Z,101323.13
2022-09-03T20:05:55.394Z,101329.56
2022-09-03T20:08:40.392Z,101331.53
2022-09-03T20:11:17.407Z,101329.88
2022-09-03T20:14:00.016Z,101338.03
2022-09-03T20:16:37.042Z,101347.09
2022-09-03T20:19:19.836Z,101339.31
2022-09-03T20:22:04.843Z,101345.78
2022-09-03T20:24:48.839Z,101345.06
2022-09-03T20:27:33.181Z,101351.44
2022-09-03T20:30:11.914Z,101355.06
2022-09-03T20:33:15.346Z,101353.47
2022-09-03T20:36:06.539Z,101343.91
2022-09-03T20:39:06.447Z,101349.41
2022-09-03T20:41:54.437Z,101352.22
2022-09-03T20:44:46.620Z,101345.31
2022-09-03T20:47:38.061Z,101354.38
2022-09-03T20:50:22.239Z,101350.97
2022-09-03T20:53:03.288Z,101350.25
2022-09-03T20:55:44.479Z,101356.63
2022-09-03T20:58:28.097Z,101356.72
2022-09-03T21:01:07.615Z,101356.78
2022-09-03T21:03:50.022Z,101361.34
2022-09-03T21:06:31.916Z,101363.25
2022-09-03T21:09:14.858Z,101362.47
2022-09-03T21:11:54.120Z,101358.13
2022-09-03T21:14:36.108Z,101361.81
2022-09-03T21:17:39.856Z,101362.78
2022-09-03T21:20:20.788Z,101368.19
2022-09-03T21:23:06.778Z,101364.75
2022-09-03T21:25:42.233Z,101367.50
2022-09-03T21:28:20.574Z,101379.09
2022-09-03T21:30:56.569Z,101368.56
2022-09-03T21:33:32.182Z,101370.41
2022-09-03T21:36:09.549Z,101376.66
2022-09-03T21:38:41.001Z,101375.00
2022-09-03T21:41:20.138Z,101372.38
2022-09-03T21:44:00.349Z,101370.72
2022-09-03T21:46:43.600Z,101371.69
2022-09-03T21:49:18.047Z,101377.06
2022-09-03T21:52:04.769Z,101371.84
2022-09-03T21:54:39.792Z,101382.50
2022-09-03T21:57:22.303Z,101382.56
2022-09-03T22:00:11.838Z,101390.59
2022-09-03T22:02:42.659Z,101387.97
2022-09-03T22:05:12.720Z,101388.91
2022-09-03T22:07:54.030Z,101394.31
2022-09-03T22:10:29.622Z,101383.75
2022-09-03T22:13:14.755Z,101387.34
2022-09-03T22:15:54.596Z,101384.78
2022-09-03T22:18:28.852Z,101385.75
2022-09-03T22:21:13.415Z,101391.16
2022-09-03T22:24:04.560Z,101390.31
2022-09-03T22:26:45.772Z,101381.50
2022-09-03T22:29:25.370Z,101390.41
2022-09-03T22:32:07.566Z,101394.88
2022-09-03T22:35:05.387Z,101397.56
2022-09-03T22:37:49.751Z,101399.38
2022-09-03T22:40:26.937Z,101396.72
2022-09-03T22:43:19.545Z,101390.56
2022-09-03T22:46:10.000Z,101394.16
2022-09-03T22:49:12.774Z,101400.38
2022-09-03T22:51:57.231Z,101397.75
2022-09-03T22:54:46.661Z,101403.97
2022-09-03T22:57:18.949Z,101404.03
2022-09-03T23:00:00.673Z,101401.41
2022-09-03T23:02:34.511Z,101404.09
2022-09-03T23:05:11.817Z,101402.34
2022-09-03T23:07:55.968Z,101402.34
2022-09-03T23:10:32.525Z,101408.56
2022-09-03T23:13:12.922Z,101414.78
2022-09-03T23:15:44.471Z,101415.69
2022-09-03T23:18:18.164Z,101410.41
2022-09-03T23:20:59.280Z,101416.59
2022-09-03T23:23:36.452Z,101418.38
2022-09-03T23:26:15.358Z,101422.81
2022-09-03T23:28:49.208Z,101414.00
2022-09-03T23:31:25.755Z,101422.84
2022-09-03T23:34:03.915Z,101430.81
2022-09-03T23:37:22.452Z,101427.25
2022-09-03T23:40:12.893Z,101425.50
2022-09-03T23:43:00.154Z,101425.50
2022-09-03T23:45:37.331Z,101425.53
2022-09-03T23:48:18.415Z,101429.09
2022-09-03T23:50:54.504Z,101430.88
2022-09-03T23:53:45.623Z,101427.34
2022-09-03T23:56:54.746Z,101433.56
2022-09-03T23:59:31.307Z,101421.22
